Time;durP1;ratioP1;P1;durP2;ratioP2;P2;SDS_P1;SDS_P2;PMS_P1;PMS_P2;Temp;Humidity;BMP_temperature;BMP_pressure;BME280_temperature;BME280_humidity;BME280_pressure;Samples;Min_cycle;Max_cycle;Signal;HPM_P1;HPM_P2
2023/09/01 00:01:20;;;;;;;;;;;;;;;17.57;53.03;101125.06;5033323;27;124205;-68
2023/09/01 00:04:05;;;;;;;;;;;;;;;17.54;53.01;101119.91;5035903;27;110085;-68
2023/09/01 00:06:32;;;;;;;;;;;;;;;17.51;53.08;101126.34;4999727;28;107707;-68
2023/09/01 00:09:00;;;;;;;;;;;;;;;17.49;53.05;101128.28;5017946;28;124112;-68
2023/09/01 00:11:27;;;;;;;;;;;;;;;17.47;53.29;101130.22;5033536;27;123999;-68
2023/09/01 00:13:55;;;;;;;;;;;;;;;17.45;53.24;101121.44;5018747;28;108195;-68
2023/09/01 00:16:22;;;;;;;;;;;;;;;17.42;53.17;101118.97;5015836;28;107566;-68
2023/09/01 00:18:49;;;;;;;;;;;;;;;17.39;53.10;101111.16;5016152;28;123443;-68
2023/09/01 00:21:16;;;;;;;;;;;;;;;17.35;53.15;101098.91;5030610;27;123757;-68
2023/09/01 00:23:43;;;;;;;;;;;;;;;17.30;53.38;101102.78;5025207;28;111184;-68
2023/09/01 00:26:12;;;;;;;;;;;;;;;17.29;53.17;101111.78;5015660;27;108761;-68
2023/09/01 00:28:40;;;;;;;;;;;;;;;17.27;53.20;101113.72;5033883;27;125116;-68
2023/09/01 00:31:07;;;;;;;;;;;;;;;17.26;53.43;101121.84;5032223;27;124951;-68
2023/09/01 00:33:34;;;;;;;;;;;;;;;17.26;53.31;101117.34;5019948;28;108406;-69
2023/09/01 00:36:03;;;;;;;;;;;;;;;17.26;53.21;101112.00;5015355;28;107678;-69
2023/09/01 00:38:32;;;;;;;;;;;;;;;17.25;53.50;101104.06;5030813;28;124173;-68
2023/09/01 00:40:59;;;;;;;;;;;;;;;17.24;53.26;101099.69;5020057;27;122843;-69
2023/09/01 00:43:26;;;;;;;;;;;;;;;17.21;53.32;101098.06;5033492;27;109621;-68
2023/09/01 00:45:54;;;;;;;;;;;;;;;17.19;53.46;101097.31;5027359;27;108955;-69
2023/09/01 00:48:21;;;;;;;;;;;;;;;17.17;53.49;101096.56;5031920;27;124399;-69
2023/09/01 00:50:50;;;;;;;;;;;;;;;17.17;53.45;101096.56;5029656;27;123512;-68
2023/09/01 00:53:18;;;;;;;;;;;;;;;17.18;53.45;101097.41;5014663;28;109373;-68
2023/09/01 00:55:45;;;;;;;;;;;;;;;17.16;53.38;101094.88;5019465;28;107991;-68
2023/09/01 00:58:12;;;;;;;;;;;;;;;17.15;53.52;101098.50;5007122;27;123613;-69
2023/09/01 01:00:39;;;;;;;;;;;;;;;17.14;53.42;101096.78;5019794;28;123014;-69
2023/09/01 01:03:08;;;;;;;;;;;;;;;17.12;53.51;101083.50;5020737;27;108454;-69
2023/09/01 01:05:41;;;;;;;;;;;;;;;17.09;53.46;101083.72;5016901;28;108752;-68
2023/09/01 01:08:12;;;;;;;;;;;;;;;17.08;53.51;101075.78;5018666;27;123798;-68
2023/09/01 01:10:52;;;;;;;;;;;;;;;17.06;53.33;101080.38;5033699;28;124936;-68
2023/09/01 01:13:21;;;;;;;;;;;;;;;17.03;53.48;101072.59;5018930;28;109980;-69
2023/09/01 01:15:52;;;;;;;;;;;;;;;17.02;53.72;101081.56;5014111;27;109139;-69
2023/09/01 01:18:21;;;;;;;;;;;;;;;17.01;53.80;101095.88;5033273;27;125093;-68
2023/09/01 01:20:52;;;;;;;;;;;;;;;17.03;53.71;101088.66;5036544;27;125143;-68
2023/09/01 01:23:20;;;;;;;;;;;;;;;17.04;53.82;101085.00;5032790;28;109409;-68
2023/09/01 01:25:51;;;;;;;;;;;;;;;17.05;53.85;101102.78;5034741;27;109151;-68
2023/09/01 01:28:19;;;;;;;;;;;;;;;17.06;53.67;101099.13;5023099;27;123068;-68
2023/09/01 01:30:47;;;;;;;;;;;;;;;17.07;53.63;101106.19;5037551;27;124098;-68
2023/09/01 01:33:21;;;;;;;;;;;;;;;17.07;53.75;101103.53;5011026;28;108632;-68
2023/09/01 01:35:55;;;;;;;;;;;;;;;17.09;53.68;101098.91;5019380;27;108735;-68
2023/09/01 01:38:25;;;;;;;;;;;;;;;17.11;53.81;101097.00;5032261;27;124374;-68
2023/09/01 01:40:56;;;;;;;;;;;;;;;17.12;53.68;101093.34;5021834;27;122838;-68
2023/09/01 01:43:25;;;;;;;;;;;;;;;17.14;53.68;101102.16;5023690;28;109891;-68
2023/09/01 01:45:54;;;;;;;;;;;;;;;17.15;53.72;101098.50;5033136;28;109123;-67
2023/09/01 01:48:21;;;;;;;;;;;;;;;17.16;53.70;101100.22;5019720;28;123017;-68
2023/09/01 01:50:48;;;;;;;;;;;;;;;17.17;53.57;101107.28;5022839;28;123402;-68
2023/09/01 01:53:15;;;;;;;;;;;;;;;17.16;53.61;101105.56;5007900;28;109512;-68
2023/09/01 01:55:42;;;;;;;;;;;;;;;17.12;53.58;101114.75;5024286;28;107761;-68
2023/09/01 01:58:09;;;;;;;;;;;;;;;17.11;53.73;101108.56;5025580;28;124091;-68
2023/09/01 02:00:36;;;;;;;;;;;;;;;17.11;53.61;101113.06;5017139;27;123115;-68
2023/09/01 02:03:04;;;;;;;;;;;;;;;17.08;53.52;101108.78;5035920;27;110309;-68
2023/09/01 02:05:32;;;;;;;;;;;;;;;17.05;53.47;101108.13;5018003;27;108482;-68
2023/09/01 02:07:59;;;;;;;;;;;;;;;16.98;53.54;101102.31;5016963;27;123343;-68
2023/09/01 02:10:27;;;;;;;;;;;;;;;16.96;53.57;101103.41;5033531;27;125874;-68
2023/09/01 02:12:54;;;;;;;;;;;;;;;16.92;53.75;101098.25;5015346;28;108327;-68
2023/09/01 02:15:22;;;;;;;;;;;;;;;16.93;53.78;101099.97;5029653;27;109702;-67
2023/09/01 02:17:49;;;;;;;;;;;;;;;16.93;53.93;101110.69;5033505;28;124485;-67
2023/09/01 02:20:19;;;;;;;;;;;;;;;16.96;53.83;101106.06;5018061;27;123071;-68
2023/09/01 02:22:50;;;;;;;;;;;;;;;16.99;53.99;101103.16;5032571;27;109660;-68
2023/09/01 02:25:19;;;;;;;;;;;;;;;17.01;54.08;101096.78;5001401;28;108184;-68
2023/09/01 02:27:46;;;;;;;;;;;;;;;17.04;53.96;101095.69;5034226;27;124088;-68
2023/09/01 02:30:15;;;;;;;;;;;;;;;17.06;53.92;101088.41;5017863;28;123308;-68
2023/09/01 02:32:42;;;;;;;;;;;;;;;17.07;54.04;101100.84;5036149;27;109854;-68
2023/09/01 02:35:10;;;;;;;;;;;;;;;17.09;53.76;101104.28;5033655;27;108647;-68
2023/09/01 02:37:38;;;;;;;;;;;;;;;17.08;53.84;101091.84;5022230;28;123747;-68
2023/09/01 02:40:10;;;;;;;;;;;;;;;17.05;53.73;101087.56;5035712;27;124755;-68
2023/09/01 02:42:39;;;;;;;;;;;;;;;17.03;53.72;101089.50;5018999;27;109467;-67
2023/09/01 02:45:07;;;;;;;;;;;;;;;17.00;53.89;101096.88;5018643;28;107879;-68
2023/09/01 02:47:35;;;;;;;;;;;;;;;16.95;53.90;101096.31;5033335;27;124168;-67
2023/09/01 02:50:06;;;;;;;;;;;;;;;16.90;54.11;101094.81;5025105;28;123675;-67
2023/09/01 02:52:33;;;;;;;;;;;;;;;16.89;53.92;101098.44;5017292;28;109583;-67
2023/09/01 02:55:00;;;;;;;;;;;;;;;16.90;54.17;101100.16;5014874;28;108775;-66
2023/09/01 02:57:27;;;;;;;;;;;;;;;16.92;53.95;101106.28;5020034;28;124461;-66
2023/09/01 02:59:54;;;;;;;;;;;;;;;16.94;54.07;101100.81;5013739;28;123670;-67
2023/09/01 03:02:21;;;;;;;;;;;;;;;16.97;54.01;101099.75;5030072;28;109582;-68
2023/09/01 03:04:49;;;;;;;;;;;;;;;16.96;53.96;101098.03;5035049;27;108845;-68
2023/09/01 03:07:16;;;;;;;;;;;;;;;16.96;54.01;101087.34;5018363;28;123408;-67
2023/09/01 03:09:44;;;;;;;;;;;;;;;16.94;54.12;101087.44;5032720;28;124079;-68
2023/09/01 03:12:11;;;;;;;;;;;;;;;16.91;54.20;101088.53;5016272;28;108396;-68
2023/09/01 03:14:38;;;;;;;;;;;;;;;16.92;54.37;101092.03;5032691;27;108693;-68
2023/09/01 03:17:05;;;;;;;;;;;;;;;16.93;54.35;101094.63;5014357;27;123424;-68
2023/09/01 03:19:32;;;;;;;;;;;;;;;16.97;54.35;101089.03;5027453;27;124964;-68
2023/09/01 03:21:59;;;;;;;;;;;;;;;17.00;54.28;101089.69;5017845;27;108703;-68
2023/09/01 03:24:27;;;;;;;;;;;;;;;17.02;54.23;101092.28;5022288;27;107631;-68
2023/09/01 03:26:54;;;;;;;;;;;;;;;17.03;54.13;101083.28;5021156;27;124815;-68
2023/09/01 03:29:21;;;;;;;;;;;;;;;17.03;54.19;101077.94;5014271;27;123265;-68
2023/09/01 03:31:49;;;;;;;;;;;;;;;17.05;54.34;101070.66;5020874;28;108820;-68
2023/09/01 03:34:19;;;;;;;;;;;;;;;17.07;54.33;101066.06;5028005;27;108499;-67
2023/09/01 03:36:46;;;;;;;;;;;;;;;17.09;54.31;101066.81;5015138;28;122951;-68
2023/09/01 03:39:13;;;;;;;;;;;;;;;17.12;54.41;101069.25;5015803;27;123465;-68
2023/09/01 03:41:40;;;;;;;;;;;;;;;17.13;54.30;101068.31;5033406;27;110508;-68
2023/09/01 03:44:07;;;;;;;;;;;;;;;17.15;54.33;101076.22;5033784;27;110278;-68
2023/09/01 03:46:34;;;;;;;;;;;;;;;17.17;54.18;101075.16;5030768;28;124213;-68
2023/09/01 03:49:01;;;;;;;;;;;;;;;17.19;54.41;101073.22;5015072;28;123258;-68
2023/09/01 03:51:28;;;;;;;;;;;;;;;17.23;54.35;101072.03;5015981;28;109954;-68
2023/09/01 03:53:55;;;;;;;;;;;;;;;17.27;54.54;101070.88;5016193;28;108434;-68
2023/09/01 03:56:23;;;;;;;;;;;;;;;17.32;54.41;101067.88;5015135;28;123298;-69
2023/09/01 03:58:50;;;;;;;;;;;;;;;17.37;54.50;101059.53;5033756;27;124033;-68
2023/09/01 04:01:17;;;;;;;;;;;;;;;17.39;54.36;101060.28;5016059;28;108113;-69
2023/09/01 04:03:47;;;;;;;;;;;;;;;17.42;54.50;101052.91;5017311;28;107894;-68
2023/09/01 04:06:14;;;;;;;;;;;;;;;17.43;54.48;101053.75;4997484;28;123554;-68
2023/09/01 04:08:41;;;;;;;;;;;;;;;17.45;54.30;101051.81;5015524;28;123150;-68
2023/09/01 04:11:08;;;;;;;;;;;;;;;17.48;54.52;101056.97;5020528;28;108557;-68
2023/09/01 04:13:36;;;;;;;;;;;;;;;17.49;54.48;101064.03;5033732;27;108952;-68
2023/09/01 04:16:03;;;;;;;;;;;;;;;17.52;54.59;101058.47;5028734;27;124175;-68
2023/09/01 04:18:32;;;;;;;;;;;;;;;17.52;54.53;101061.13;5015436;27;123785;-68
2023/09/01 04:20:59;;;;;;;;;;;;;;;17.53;54.29;101054.78;5026361;28;109774;-68
2023/09/01 04:23:27;;;;;;;;;;;;;;;17.54;54.39;101051.16;5035848;27;109092;-67
2023/09/01 04:25:55;;;;;;;;;;;;;;;17.55;54.53;101047.50;4995063;28;123583;-68
2023/09/01 04:28:25;;;;;;;;;;;;;;;17.56;54.33;101043.88;5006493;28;123132;-67
2023/09/01 04:30:54;;;;;;;;;;;;;;;17.55;54.03;101036.78;5029536;27;110040;-68
2023/09/01 04:33:21;;;;;;;;;;;;;;;17.54;54.41;101029.75;5020053;28;109222;-67
2023/09/01 04:36:03;;;;;;;;;;;;;;;17.52;54.60;101037.03;5026886;27;124391;-69
2023/09/01 04:38:31;;;;;;;;;;;;;;;17.51;54.55;101046.00;5007755;28;123593;-68
2023/09/01 04:40:59;;;;;;;;;;;;;;;17.54;54.74;101045.81;5016436;28;109720;-68
2023/09/01 04:43:28;;;;;;;;;;;;;;;17.56;54.56;101051.91;5019498;28;107895;-68
2023/09/01 04:45:57;;;;;;;;;;;;;;;17.58;54.58;101058.00;5016604;28;123355;-68
2023/09/01 04:48:27;;;;;;;;;;;;;;;17.62;54.55;101059.50;5010514;28;123072;-68
2023/09/01 04:50:54;;;;;;;;;;;;;;;17.65;54.49;101059.28;5018157;27;108461;-68
2023/09/01 04:53:23;;;;;;;;;;;;;;;17.68;54.65;101067.09;5012410;28;107626;-68
2023/09/01 04:55:51;;;;;;;;;;;;;;;17.70;54.83;101062.47;5020333;27;123513;-68
2023/09/01 04:58:18;;;;;;;;;;;;;;;17.73;54.47;101069.47;5010565;28;124176;-68
2023/09/01 05:00:45;;;;;;;;;;;;;;;17.76;54.70;101065.69;5026464;28;108656;-68
2023/09/01 05:03:13;;;;;;;;;;;;;;;17.77;54.72;101070.09;5019391;28;108114;-68
2023/09/01 05:05:40;;;;;;;;;;;;;;;17.79;54.81;101060.13;5018495;27;124512;-69
2023/09/01 05:08:07;;;;;;;;;;;;;;;17.78;54.69;101064.63;5017877;28;123836;-68
2023/09/01 05:10:34;;;;;;;;;;;;;;;17.80;54.66;101067.19;5033501;27;114955;-67
2023/09/01 05:13:01;;;;;;;;;;;;;;;17.80;54.73;101067.19;5032339;28;113692;-67
2023/09/01 05:15:30;;;;;;;;;;;;;;;17.80;54.69;101061.81;5030682;27;125170;-68
2023/09/01 05:17:58;;;;;;;;;;;;;;;17.82;54.63;101065.25;5015957;28;123318;-68
2023/09/01 05:20:25;;;;;;;;;;;;;;;17.84;54.89;101063.34;5009853;28;115667;-68
2023/09/01 05:22:52;;;;;;;;;;;;;;;17.86;54.77;101066.78;5018571;28;113853;-68
2023/09/01 05:25:20;;;;;;;;;;;;;;;17.86;54.83;101062.28;5011992;28;123252;-68
2023/09/01 05:27:47;;;;;;;;;;;;;;;17.87;54.78;101047.06;5011311;28;123069;-68
2023/09/01 05:30:14;;;;;;;;;;;;;;;17.87;54.83;101052.41;5015535;28;113696;-68
2023/09/01 05:32:42;;;;;;;;;;;;;;;17.88;54.87;101054.13;5016084;28;113065;-68
2023/09/01 05:35:09;;;;;;;;;;;;;;;17.91;54.79;101059.25;5029738;27;124521;-68
2023/09/01 05:37:36;;;;;;;;;;;;;;;17.91;54.96;101053.88;5015408;28;123415;-68
2023/09/01 05:40:04;;;;;;;;;;;;;;;17.93;54.73;101060.00;5013265;28;114008;-68
2023/09/01 05:42:31;;;;;;;;;;;;;;;17.94;54.63;101052.84;5016022;27;113488;-68
2023/09/01 05:44:58;;;;;;;;;;;;;;;17.95;54.98;101055.41;5010855;28;124423;-69
2023/09/01 05:47:27;;;;;;;;;;;;;;;17.98;54.84;101055.16;5024166;27;123263;-69
2023/09/01 05:49:54;;;;;;;;;;;;;;;17.98;54.96;101063.19;5019100;28;113950;-68
2023/09/01 05:52:21;;;;;;;;;;;;;;;18.00;54.96;101069.31;5008306;28;112529;-68
2023/09/01 05:54:48;;;;;;;;;;;;;;;18.03;54.97;101068.25;5030565;27;125050;-68
2023/09/01 05:57:15;;;;;;;;;;;;;;;18.06;54.82;101066.19;5032065;27;124254;-68
2023/09/01 05:59:42;;;;;;;;;;;;;;;18.11;54.97;101070.38;5032404;27;114582;-68
2023/09/01 06:02:09;;;;;;;;;;;;;;;18.15;54.83;101071.84;5032118;27;112977;-68
2023/09/01 06:04:36;;;;;;;;;;;;;;;18.18;54.94;101072.47;5029689;27;124068;-68
2023/09/01 06:07:05;;;;;;;;;;;;;;;18.22;54.87;101067.75;5030966;27;124133;-68
2023/09/01 06:09:34;;;;;;;;;;;;;;;18.26;55.02;101069.22;5030500;27;115632;-68
2023/09/01 06:12:02;;;;;;;;;;;;;;;18.30;54.96;101051.94;5030923;27;114558;-68
2023/09/01 06:14:29;;;;;;;;;;;;;;;18.32;54.92;101058.03;5025992;28;124875;-69
2023/09/01 06:16:56;;;;;;;;;;;;;;;18.36;54.98;101061.34;5030056;28;124740;-69
2023/09/01 06:19:23;;;;;;;;;;;;;;;18.39;55.03;101064.66;5013663;28;114811;-70
2023/09/01 06:21:50;;;;;;;;;;;;;;;18.45;55.09;101052.63;5033254;27;114851;-70
2023/09/01 06:24:18;;;;;;;;;;;;;;;18.52;55.13;101058.41;5011880;28;125003;-68
2023/09/01 06:26:45;;;;;;;;;;;;;;;18.57;54.99;101056.19;5012290;27;123251;-69
2023/09/01 06:29:12;;;;;;;;;;;;;;;18.59;54.80;101065.88;5033526;27;114304;-69
2023/09/01 06:31:39;;;;;;;;;;;;;;;18.63;54.97;101063.81;5038194;27;113871;-69
2023/09/01 06:34:06;;;;;;;;;;;;;;;18.69;55.04;101066.03;5030579;27;124215;-69
2023/09/01 06:36:33;;;;;;;;;;;;;;;18.76;55.10;101078.00;5029960;27;123996;-68
2023/09/01 06:39:00;;;;;;;;;;;;;;;18.79;54.94;101069.69;5015096;28;113955;-68
2023/09/01 06:41:27;;;;;;;;;;;;;;;18.82;54.97;101074.88;5031994;28;114068;-67
2023/09/01 06:43:54;;;;;;;;;;;;;;;18.88;55.17;101080.75;5027414;27;124205;-67
2023/09/01 06:46:21;;;;;;;;;;;;;;;18.94;55.05;101080.28;5027624;28;124505;-67
2023/09/01 06:48:48;;;;;;;;;;;;;;;19.00;54.93;101074.44;5013603;27;113356;-68
2023/09/01 06:51:16;;;;;;;;;;;;;;;19.05;54.95;101066.91;5028545;27;114248;-68
2023/09/01 06:53:43;;;;;;;;;;;;;;;19.09;54.96;101068.34;5027296;28;124172;-67
2023/09/01 06:56:10;;;;;;;;;;;;;;;19.15;54.99;101062.50;5027163;27;124122;-67
2023/09/01 06:58:37;;;;;;;;;;;;;;;19.21;55.03;101080.84;5007338;28;115163;-67
2023/09/01 07:01:08;;;;;;;;;;;;;;;19.28;55.14;101077.66;5030271;28;114918;-68
2023/09/01 07:03:35;;;;;;;;;;;;;;;19.36;54.99;101075.22;5012164;28;123899;-66
2023/09/01 07:06:03;;;;;;;;;;;;;;;19.41;55.04;101078.41;5024532;27;124668;-66
2023/09/01 07:08:30;;;;;;;;;;;;;;;19.48;55.05;101081.47;5011641;28;113573;-66
2023/09/01 07:11:01;;;;;;;;;;;;;;;19.52;55.06;101086.50;5031711;27;114100;-66
2023/09/01 07:13:28;;;;;;;;;;;;;;;19.61;55.19;101085.75;5026140;27;124180;-66
2023/09/01 07:15:55;;;;;;;;;;;;;;;19.68;55.04;101070.00;5027568;28;124335;-66
2023/09/01 07:18:23;;;;;;;;;;;;;;;19.73;55.07;101066.97;5029624;28;114540;-66
2023/09/01 07:20:50;;;;;;;;;;;;;;;19.77;54.97;101063.06;5031914;27;114024;-66
2023/09/01 07:23:17;;;;;;;;;;;;;;;19.82;55.07;101064.41;5020692;27;124409;-66
2023/09/01 07:25:44;;;;;;;;;;;;;;;19.88;55.03;101055.00;5013933;28;123110;-66
2023/09/01 07:28:12;;;;;;;;;;;;;;;19.94;54.90;101054.47;5023839;28;114666;-66
2023/09/01 07:30:39;;;;;;;;;;;;;;;19.98;54.98;101050.56;5030819;28;113701;-66
2023/09/01 07:33:34;;;;;;;;;;;;;;;;;;;;;
2023/09/01 07:36:21;;;;;;;;;;;;;;;20.03;54.90;101053.75;5016277;28;123169;-66
2023/09/01 07:38:48;;;;;;;;;;;;;;;20.06;54.91;101051.78;5004596;28;115129;-66
2023/09/01 07:41:15;;;;;;;;;;;;;;;20.07;54.78;101053.50;5034489;27;112402;-66
2023/09/01 07:43:43;;;;;;;;;;;;;;;20.08;54.89;101050.69;5007652;27;124099;-66
2023/09/01 07:46:09;;;;;;;;;;;;;;;20.12;54.87;101062.06;5033606;27;124386;-66
2023/09/01 07:48:37;;;;;;;;;;;;;;;20.14;54.92;101052.03;5028891;27;115739;-66
2023/09/01 07:51:04;;;;;;;;;;;;;;;20.16;54.92;101058.13;5021035;28;114634;-66
2023/09/01 07:53:31;;;;;;;;;;;;;;;20.16;54.83;101052.75;5027319;28;124391;-66
2023/09/01 07:55:58;;;;;;;;;;;;;;;20.15;54.79;101053.72;5029701;28;123979;-66
2023/09/01 07:58:26;;;;;;;;;;;;;;;20.17;54.94;101054.44;5023452;28;114668;-66
2023/09/01 08:00:53;;;;;;;;;;;;;;;20.20;54.97;101048.81;5021464;27;114094;-66
2023/09/01 08:03:22;;;;;;;;;;;;;;;20.23;54.97;101053.97;5037326;27;124868;-66
2023/09/01 08:05:49;;;;;;;;;;;;;;;20.22;54.93;101045.00;5032343;27;124766;-66
2023/09/01 08:08:16;;;;;;;;;;;;;;;20.20;54.94;101048.81;5030058;28;114412;-66
2023/09/01 08:10:43;;;;;;;;;;;;;;;20.20;54.98;101060.41;5021436;28;114256;-66
2023/09/01 08:13:11;;;;;;;;;;;;;;;20.21;54.97;101056.75;5031310;27;124152;-66
2023/09/01 08:15:38;;;;;;;;;;;;;;;20.22;54.97;101057.63;5036934;27;125151;-66
2023/09/01 08:18:06;;;;;;;;;;;;;;;20.23;54.91;101053.97;5029689;27;114471;-67
2023/09/01 08:20:33;;;;;;;;;;;;;;;20.23;55.05;101065.56;5043689;27;113521;-66
2023/09/01 08:23:00;;;;;;;;;;;;;;;20.23;55.04;101070.09;5035294;27;124131;-66
2023/09/01 08:25:27;;;;;;;;;;;;;;;20.19;54.99;101069.50;5004092;28;123223;-66
2023/09/01 08:27:54;;;;;;;;;;;;;;;20.18;55.02;101080.38;5029509;28;114903;-66
2023/09/01 08:30:22;;;;;;;;;;;;;;;20.19;55.14;101090.13;5023845;28;113497;-66
2023/09/01 08:32:49;;;;;;;;;;;;;;;20.21;55.15;101088.16;5027593;28;125070;-66
2023/09/01 08:35:16;;;;;;;;;;;;;;;20.22;55.08;101092.56;5020728;28;124028;-66
2023/09/01 08:37:43;;;;;;;;;;;;;;;20.23;55.12;101097.00;5029720;28;115419;-66
2023/09/01 08:40:10;;;;;;;;;;;;;;;20.25;55.17;101100.41;5029174;28;114452;-66
2023/09/01 08:42:45;;;;;;;;;;;;;;;20.28;55.26;101100.13;5031732;27;124931;-65
2023/09/01 08:45:19;;;;;;;;;;;;;;;20.30;55.18;101098.16;5029323;28;124669;-66
2023/09/01 08:47:48;;;;;;;;;;;;;;;20.30;55.13;101098.16;5030147;28;114379;-66
2023/09/01 08:50:16;;;;;;;;;;;;;;;20.30;55.21;101098.16;5012489;28;113520;-68
2023/09/01 08:52:44;;;;;;;;;;;;;;;20.32;55.17;101101.59;5031159;28;124381;-68
2023/09/01 08:55:13;;;;;;;;;;;;;;;20.34;55.30;101098.78;5020863;28;124800;-68
2023/09/01 08:57:40;;;;;;;;;;;;;;;20.34;55.18;101094.28;5033186;27;115067;-68
2023/09/01 09:00:08;;;;;;;;;;;;;;;20.36;55.21;101097.69;5034321;27;113562;-68
2023/09/01 09:02:39;;;;;;;;;;;;;;;20.35;55.24;101095.97;5027500;27;125937;-68
2023/09/01 09:05:20;;;;;;;;;;;;;;;20.36;55.27;101092.31;5027418;28;123989;-68
2023/09/01 09:07:58;;;;;;;;;;;;;;;20.37;55.27;101104.75;5024437;28;115282;-68
2023/09/01 09:10:38;;;;;;;;;;;;;;;20.39;55.38;101108.19;5028450;27;113560;-68
2023/09/01 09:13:25;;;;;;;;;;;;;;;20.40;55.38;101115.28;5022110;27;124081;-68
2023/09/01 09:16:05;;;;;;;;;;;;;;;20.42;55.44;101116.00;5031465;27;124710;-68
2023/09/01 09:18:33;;;;;;;;;;;;;;;20.47;55.47;101114.75;5031646;27;114245;-68
2023/09/01 09:21:00;;;;;;;;;;;;;;;20.49;55.44;101118.19;5036549;27;113962;-68
2023/09/01 09:23:41;;;;;;;;;;;;;;;20.51;55.38;101110.84;5027272;27;124452;-68
2023/09/01 09:26:08;;;;;;;;;;;;;;;20.49;55.34;101112.81;5024509;28;123136;-68
2023/09/01 09:28:35;;;;;;;;;;;;;;;20.50;55.37;101114.53;5031827;27;115560;-68
2023/09/01 09:31:02;;;;;;;;;;;;;;;20.50;55.33;101109.16;5033223;28;115705;-68
2023/09/01 09:33:30;;;;;;;;;;;;;;;20.49;55.29;101123.56;5016147;28;123016;-68
2023/09/01 09:35:57;;;;;;;;;;;;;;;20.46;55.35;101123.84;5015014;28;123018;-68
2023/09/01 09:38:39;;;;;;;;;;;;;;;20.41;55.43;101116.97;5016015;28;113553;-68
2023/09/01 09:41:06;;;;;;;;;;;;;;;20.38;55.40;101117.25;5031497;28;114216;-68
2023/09/01 09:43:44;;;;;;;;;;;;;;;20.37;55.46;101118.22;5010687;28;123133;-68
2023/09/01 09:46:11;;;;;;;;;;;;;;;20.38;55.53;101122.63;5032366;27;124521;-70
2023/09/01 09:48:39;;;;;;;;;;;;;;;20.40;55.60;101120.66;5024142;28;114542;-69
2023/09/01 09:51:10;;;;;;;;;;;;;;;20.42;55.64;101125.91;5015501;28;113654;-68
2023/09/01 09:53:38;;;;;;;;;;;;;;;20.46;55.58;101129.22;5017457;28;123158;-68
2023/09/01 09:56:30;;;;;;;;;;;;;;;20.48;55.55;101121.88;5048283;27;124471;-68
2023/09/01 09:59:03;;;;;;;;;;;;;;;20.51;55.59;101126.97;5040112;27;114365;-68
2023/09/01 10:01:34;;;;;;;;;;;;;;;20.53;55.61;101128.59;5026328;28;114182;-69
2023/09/01 10:04:04;;;;;;;;;;;;;;;20.59;55.64;101127.22;5023123;28;124216;-68
2023/09/01 10:06:33;;;;;;;;;;;;;;;20.60;55.50;101127.09;5018151;28;123018;-69
2023/09/01 10:09:08;;;;;;;;;;;;;;;20.59;55.60;101129.91;5014422;28;113453;-69
2023/09/01 10:11:37;;;;;;;;;;;;;;;20.56;55.56;101127.47;5034540;28;114825;-68
2023/09/01 10:14:05;;;;;;;;;;;;;;;20.55;55.49;101121.22;5027275;28;125139;-67
2023/09/01 10:16:32;;;;;;;;;;;;;;;20.55;55.64;101125.75;5018809;27;123157;-67
2023/09/01 10:18:59;;;;;;;;;;;;;;;20.58;55.79;101122.81;5019676;28;114396;-67
2023/09/01 10:21:26;;;;;;;;;;;;;;;20.61;55.75;101128.81;5033639;27;114751;-68
2023/09/01 10:23:53;;;;;;;;;;;;;;;20.65;55.66;101124.03;5019043;27;123663;-68
2023/09/01 10:26:24;;;;;;;;;;;;;;;20.67;55.69;101126.63;5031307;27;123935;-68
2023/09/01 10:28:56;;;;;;;;;;;;;;;20.69;55.79;101119.25;5013975;27;114682;-67
2023/09/01 10:31:24;;;;;;;;;;;;;;;20.71;55.79;101118.13;5038201;27;113757;-67
2023/09/01 10:34:04;;;;;;;;;;;;;;;20.74;55.74;101117.88;5019712;28;124385;-67
2023/09/01 10:36:31;;;;;;;;;;;;;;;20.77;55.71;101123.00;5035247;27;125033;-66
2023/09/01 10:39:23;;;;;;;;;;;;;;;20.79;55.75;101107.59;5016107;28;115192;-67
2023/09/01 10:41:50;;;;;;;;;;;;;;;20.84;55.82;101112.59;5027692;28;114080;-67
2023/09/01 10:44:17;;;;;;;;;;;;;;;20.86;55.82;101115.16;5030323;27;124293;-69
2023/09/01 10:46:44;;;;;;;;;;;;;;;20.88;55.74;101113.19;5025889;27;124039;-68
2023/09/01 10:49:12;;;;;;;;;;;;;;;20.90;55.70;101116.59;5030316;27;114383;-68
2023/09/01 10:51:41;;;;;;;;;;;;;;;20.92;55.78;101111.94;5035890;27;112867;-68
2023/09/01 10:54:15;;;;;;;;;;;;;;;20.94;55.73;101123.44;5030110;27;124516;-68
2023/09/01 10:56:56;;;;;;;;;;;;;;;20.94;55.68;101115.34;5014092;28;123800;-68
2023/09/01 10:59:35;;;;;;;;;;;;;;;20.94;55.76;101113.50;5032388;28;114826;-68
2023/09/01 11:02:22;;;;;;;;;;;;;;;20.97;55.79;101112.41;5034429;27;113687;-68
2023/09/01 11:04:49;;;;;;;;;;;;;;;20.99;55.82;101121.22;5027863;27;124370;-68
2023/09/01 11:07:18;;;;;;;;;;;;;;;20.99;55.81;101122.06;5030735;27;124326;-68
2023/09/01 11:09:49;;;;;;;;;;;;;;;21.02;55.83;101120.97;5017275;28;117191;-67
2023/09/01 11:12:17;;;;;;;;;;;;;;;21.06;55.92;101126.91;5031618;27;114914;-68
2023/09/01 11:14:55;;;;;;;;;;;;;;;21.12;55.92;101127.25;5032792;27;124842;-68
2023/09/01 11:17:38;;;;;;;;;;;;;;;21.15;55.79;101132.41;5027756;27;123989;-68
2023/09/01 11:20:08;;;;;;;;;;;;;;;21.17;55.72;101135.81;5032624;27;114387;-68
2023/09/01 11:22:39;;;;;;;;;;;;;;;21.20;55.96;101131.97;5027353;27;113440;-68
2023/09/01 11:25:15;;;;;;;;;;;;;;;21.26;55.95;101127.91;5036414;27;125144;-67
2023/09/01 11:27:43;;;;;;;;;;;;;;;21.32;56.00;101132.75;5030043;27;122788;-66
2023/09/01 11:30:11;;;;;;;;;;;;;;;21.36;55.82;101126.13;5015304;28;113236;-66
2023/09/01 11:32:38;;;;;;;;;;;;;;;21.38;55.95;101132.25;5025751;27;113875;-66
2023/09/01 11:35:06;;;;;;;;;;;;;;;21.41;55.80;101126.59;5033059;27;124746;-66
2023/09/01 11:37:34;;;;;;;;;;;;;;;21.41;55.92;101126.59;5033034;27;124454;-66
2023/09/01 11:40:04;;;;;;;;;;;;;;;21.43;55.90;101130.00;5030541;27;114589;-65
2023/09/01 11:42:32;;;;;;;;;;;;;;;21.46;56.03;101134.31;5033096;27;114185;-66
2023/09/01 11:45:01;;;;;;;;;;;;;;;21.51;56.08;101135.63;5043791;27;124351;-66
2023/09/01 11:47:28;;;;;;;;;;;;;;;21.57;55.87;101137.78;5031242;27;123692;-65
2023/09/01 11:49:57;;;;;;;;;;;;;;;21.62;55.93;101139.22;5014800;28;114390;-66
2023/09/01 11:52:24;;;;;;;;;;;;;;;21.64;55.82;101138.09;5025918;27;113075;-66
2023/09/01 11:54:52;;;;;;;;;;;;;;;21.66;55.91;101140.66;5025339;28;124125;-66
2023/09/01 11:57:20;;;;;;;;;;;;;;;21.69;55.86;101145.78;5030131;27;124357;-66
2023/09/01 11:59:48;;;;;;;;;;;;;;;21.73;55.86;101147.22;5034332;27;115565;-66
2023/09/01 12:02:18;;;;;;;;;;;;;;;21.78;56.05;101150.38;5036843;27;96810;-66
2023/09/01 12:04:46;;;;;;;;;;;;;;;21.84;56.02;101155.22;5023893;27;124640;-65
2023/09/01 12:07:28;;;;;;;;;;;;;;;21.93;55.97;101156.28;5027734;28;124260;-65
2023/09/01 12:09:56;;;;;;;;;;;;;;;22.02;56.06;101141.09;5032218;27;114425;-65
2023/09/01 12:12:23;;;;;;;;;;;;;;;22.12;56.06;101142.00;5029616;27;114027;-67
2023/09/01 12:15:03;;;;;;;;;;;;;;;22.22;56.15;101159.06;5029972;27;125337;-67
2023/09/01 12:17:30;;;;;;;;;;;;;;;22.26;55.77;101157.81;5028266;27;125593;-67
2023/09/01 12:19:57;;;;;;;;;;;;;;;22.29;56.09;101157.56;5025337;27;114856;-67
2023/09/01 12:22:24;;;;;;;;;;;;;;;22.34;55.94;101174.19;5030529;27;113841;-65
2023/09/01 12:24:53;;;;;;;;;;;;;;;22.40;55.89;101177.34;5031149;28;125027;-66
2023/09/01 12:27:21;;;;;;;;;;;;;;;22.44;55.78;101178.78;5029222;27;123797;-65
2023/09/01 12:29:48;;;;;;;;;;;;;;;22.48;55.94;101180.19;5035757;27;114227;-66
2023/09/01 12:32:16;;;;;;;;;;;;;;;22.50;55.86;101183.59;5010480;28;113306;-66
2023/09/01 12:34:43;;;;;;;;;;;;;;;22.51;55.78;101190.72;5025472;28;125112;-68
2023/09/01 12:37:10;;;;;;;;;;;;;;;22.54;55.93;101185.03;5034061;27;124081;-68